createdAt,value
2018-05-12T00:01:40.065Z,1.77
2018-05-12T00:04:46.210Z,1.27
2018-05-12T00:07:52.341Z,1.60
2018-05-12T00:10:58.194Z,1.60
2018-05-12T00:14:03.410Z,2.00
2018-05-12T00:17:08.813Z,1.43
2018-05-12T00:20:14.035Z,1.20
2018-05-12T00:23:19.241Z,1.27
2018-05-12T00:26:24.952Z,1.50
2018-05-12T00:29:30.177Z,1.57
2018-05-12T00:32:35.589Z,1.80
2018-05-12T00:35:41.529Z,1.20
2018-05-12T00:38:46.813Z,1.60
2018-05-12T00:41:52.029Z,1.63
2018-05-12T00:44:57.241Z,1.60
2018-05-12T00:48:03.305Z,2.13
2018-05-12T00:51:08.492Z,1.50
2018-05-12T00:54:13.365Z,1.63
2018-05-12T00:57:20.429Z,2.30
2018-05-12T01:00:27.499Z,1.77
2018-05-12T01:03:33.340Z,1.93
2018-05-12T01:06:38.540Z,1.60
2018-05-12T01:09:43.797Z,1.20
2018-05-12T01:12:50.879Z,1.80
2018-05-12T01:15:56.353Z,1.77
2018-05-12T01:19:01.606Z,2.00
2018-05-12T01:22:06.901Z,1.40
2018-05-12T01:25:12.884Z,1.80
2018-05-12T01:28:18.585Z,1.50
2018-05-12T01:31:24.270Z,1.77
2018-05-12T01:34:29.967Z,1.43
2018-05-12T01:37:35.873Z,2.07
2018-05-12T01:40:42.095Z,1.70
2018-05-12T01:43:47.668Z,2.00
2018-05-12T01:46:53.305Z,1.80
2018-05-12T01:49:59.442Z,1.97
2018-05-12T01:53:06.469Z,1.97
2018-05-12T01:56:12.581Z,1.70
2018-05-12T01:59:17.978Z,1.63
2018-05-12T02:02:23.986Z,1.60
2018-05-12T02:05:29.413Z,1.80
2018-05-12T02:08:36.510Z,2.27
2018-05-12T02:11:42.636Z,2.27
2018-05-12T02:14:49.670Z,2.00
2018-05-12T02:17:56.766Z,1.63
2018-05-12T02:21:02.545Z,1.87
2018-05-12T02:24:07.749Z,2.27
2018-05-12T02:27:12.963Z,1.90
2018-05-12T02:30:18.208Z,1.80
2018-05-12T02:33:24.490Z,1.80
2018-05-12T02:36:30.332Z,2.00
2018-05-12T02:39:36.905Z,2.00
2018-05-12T02:42:42.789Z,2.60
2018-05-12T02:45:49.101Z,1.80
2018-05-12T02:48:54.353Z,1.93
2018-05-12T02:52:01.481Z,1.83
2018-05-12T02:55:06.733Z,1.60
2018-05-12T02:58:12.501Z,2.30
2018-05-12T03:01:18.657Z,2.23
2018-05-12T03:04:24.589Z,2.07
2018-05-12T03:07:30.546Z,2.10
2018-05-12T03:10:37.846Z,2.17
2018-05-12T03:13:43.928Z,2.33
2018-05-12T03:16:49.269Z,2.33
2018-05-12T03:19:55.137Z,2.40
2018-05-12T03:23:01.074Z,2.50
2018-05-12T03:26:06.010Z,2.60
2018-05-12T03:29:11.218Z,3.07
2018-05-12T03:32:16.425Z,2.70
2018-05-12T03:35:21.662Z,2.70
2018-05-12T03:38:26.906Z,2.63
2018-05-12T03:41:32.117Z,2.73
2018-05-12T03:44:38.653Z,3.03
2018-05-12T03:47:44.769Z,2.33
2018-05-12T03:50:50.889Z,2.70
2018-05-12T03:53:58.011Z,2.70
2018-05-12T03:57:03.803Z,2.60
2018-05-12T04:00:10.846Z,2.70
2018-05-12T04:03:17.308Z,2.63
2018-05-12T04:06:34.460Z,2.53
2018-05-12T04:09:51.089Z,2.83
2018-05-12T04:12:56.721Z,3.13
2018-05-12T04:16:02.341Z,3.20
2018-05-12T04:19:08.276Z,2.63
2018-05-12T04:22:15.138Z,3.00
2018-05-12T04:25:22.197Z,3.27
2018-05-12T04:28:29.267Z,3.60
2018-05-12T04:31:36.343Z,3.20
2018-05-12T04:34:43.413Z,4.00
2018-05-12T04:37:49.529Z,3.27
2018-05-12T04:40:55.354Z,4.43
2018-05-12T04:44:02.182Z,3.50
2018-05-12T04:47:08.017Z,3.97
2018-05-12T04:50:13.225Z,3.63
2018-05-12T04:53:18.432Z,3.80
2018-05-12T04:56:24.555Z,4.07
2018-05-12T04:59:30.694Z,4.10
2018-05-12T05:02:36.407Z,3.73
2018-05-12T05:05:41.622Z,3.77
2018-05-12T05:08:46.830Z,3.90
2018-05-12T05:11:52.041Z,4.30
2018-05-12T05:14:57.794Z,4.30
2018-05-12T05:18:03.023Z,4.37
2018-05-12T05:21:08.316Z,3.83
2018-05-12T05:24:15.442Z,4.20
2018-05-12T05:27:21.553Z,4.20
2018-05-12T05:30:27.697Z,4.67
2018-05-12T05:33:34.805Z,4.13
2018-05-12T05:36:40.612Z,4.57
2018-05-12T05:39:46.264Z,4.30
2018-05-12T05:42:52.221Z,4.60
2018-05-12T05:45:58.170Z,4.67
2018-05-12T05:49:05.209Z,4.17
2018-05-12T05:52:11.169Z,4.30
2018-05-12T05:55:18.224Z,3.43
2018-05-12T05:58:24.244Z,4.77
2018-05-12T06:01:30.205Z,4.53
2018-05-12T06:04:36.265Z,3.63
2018-05-12T06:07:43.109Z,4.17
2018-05-12T06:10:49.257Z,4.40
2018-05-12T06:13:55.081Z,4.30
2018-05-12T06:17:01.021Z,4.90
2018-05-12T06:20:07.175Z,4.37
2018-05-12T06:23:12.936Z,4.40
2018-05-12T06:26:18.881Z,4.57
2018-05-12T06:29:25.003Z,4.30
2018-05-12T06:32:30.857Z,4.00
2018-05-12T06:35:36.072Z,4.03
2018-05-12T06:38:41.282Z,3.90
2018-05-12T06:41:46.477Z,4.20
2018-05-12T06:44:51.692Z,4.20
2018-05-12T06:47:56.914Z,5.63
2018-05-12T06:51:02.193Z,4.17
2018-05-12T06:54:08.550Z,4.83
2018-05-12T06:57:14.698Z,4.13
2018-05-12T07:00:19.914Z,5.00
2018-05-12T07:03:26.111Z,5.17
2018-05-12T07:06:33.553Z,4.80
2018-05-12T07:09:40.310Z,4.33
2018-05-12T07:12:46.160Z,4.10
2018-05-12T07:15:52.265Z,3.83
2018-05-12T07:18:58.390Z,5.03
2018-05-12T07:22:04.657Z,5.90
2018-05-12T07:25:11.541Z,5.67
2018-05-12T07:28:17.608Z,5.40
2018-05-12T07:31:23.941Z,5.20
2018-05-12T07:34:29.154Z,5.77
2018-05-12T07:37:35.419Z,5.67
2018-05-12T07:40:41.157Z,4.70
2018-05-12T07:43:46.358Z,6.10
2018-05-12T07:46:51.565Z,5.83
2018-05-12T07:49:57.187Z,6.07
2018-05-12T07:53:03.192Z,6.13
2018-05-12T07:56:09.134Z,5.80
2018-05-12T07:59:15.056Z,6.30
2018-05-12T08:02:20.274Z,5.50
2018-05-12T08:05:26.421Z,5.70
2018-05-12T08:08:31.653Z,5.50
2018-05-12T08:11:37.782Z,5.13
2018-05-12T08:14:43.717Z,5.03
2018-05-12T08:17:50.095Z,5.20
2018-05-12T08:20:56.041Z,5.30
2018-05-12T08:24:02.168Z,5.73
2018-05-12T08:27:08.517Z,5.10
2018-05-12T08:30:14.110Z,4.30
2018-05-12T08:33:19.047Z,5.00
2018-05-12T08:36:24.955Z,4.90
2018-05-12T08:39:31.073Z,5.10
2018-05-12T08:42:37.905Z,5.60
2018-05-12T08:45:45.077Z,5.50
2018-05-12T08:48:52.085Z,5.53
2018-05-12T08:51:58.215Z,5.50
2018-05-12T08:55:04.134Z,5.70
2018-05-12T08:58:09.370Z,6.20
2018-05-12T09:01:15.102Z,5.40
2018-05-12T09:04:20.313Z,4.40
2018-05-12T09:07:26.150Z,4.93
2018-05-12T09:10:32.286Z,5.23
2018-05-12T09:13:38.421Z,4.07
2018-05-12T09:16:44.054Z,4.47
2018-05-12T09:19:50.374Z,4.87
2018-05-12T09:22:56.548Z,4.13
2018-05-12T09:26:02.680Z,3.93
2018-05-12T09:29:08.565Z,3.17
2018-05-12T09:32:13.772Z,3.80
2018-05-12T09:35:19.898Z,3.23
2018-05-12T09:38:27.126Z,3.40
2018-05-12T09:41:32.941Z,3.17
2018-05-12T09:44:40.080Z,2.97
2018-05-12T09:47:47.086Z,3.13
2018-05-12T09:50:52.905Z,3.10
2018-05-12T09:53:59.077Z,3.27
2018-05-12T09:57:05.124Z,3.90
2018-05-12T10:00:11.949Z,2.80
2018-05-12T10:03:17.200Z,3.30
2018-05-12T10:06:23.348Z,3.13
2018-05-12T10:09:29.476Z,3.07
2018-05-12T10:12:35.604Z,3.87
2018-05-12T10:15:40.817Z,3.63
2018-05-12T10:18:46.242Z,3.03
2018-05-12T10:21:53.358Z,3.67
2018-05-12T10:24:59.276Z,3.40
2018-05-12T10:28:04.266Z,3.90
2018-05-12T10:31:09.921Z,3.00
2018-05-12T10:34:15.709Z,3.87
2018-05-12T10:37:20.935Z,4.00
2018-05-12T10:40:26.137Z,3.73
2018-05-12T10:43:32.060Z,4.10
2018-05-12T10:46:38.196Z,3.50
2018-05-12T10:49:43.407Z,3.70
2018-05-12T10:52:50.471Z,3.43
2018-05-12T10:55:57.510Z,3.23
2018-05-12T10:59:03.293Z,3.00
2018-05-12T11:02:09.447Z,3.40
2018-05-12T11:05:14.629Z,3.50
2018-05-12T11:08:20.469Z,3.53
2018-05-12T11:11:26.613Z,3.13
2018-05-12T11:14:31.817Z,2.80
2018-05-12T11:17:37.028Z,2.97
2018-05-12T11:20:43.690Z,3.20
2018-05-12T11:23:49.849Z,2.40
2018-05-12T11:26:55.067Z,3.20
2018-05-12T11:30:00.277Z,3.20
2018-05-12T11:33:05.680Z,3.00
2018-05-12T11:36:11.893Z,3.03
2018-05-12T11:39:17.753Z,3.87
2018-05-12T11:42:22.945Z,3.10
2018-05-12T11:45:29.047Z,3.03
2018-05-12T11:48:35.667Z,2.67
2018-05-12T11:51:42.601Z,2.40
2018-05-12T11:54:48.722Z,2.70
2018-05-12T11:57:55.618Z,2.93
2018-05-12T12:01:01.832Z,2.70
2018-05-12T12:04:07.981Z,2.67
2018-05-12T12:07:12.941Z,2.70
2018-05-12T12:10:19.735Z,2.53
2018-05-12T12:13:25.553Z,2.27
2018-05-12T12:16:31.632Z,2.43
2018-05-12T12:19:38.136Z,2.30
2018-05-12T12:22:44.702Z,2.70
2018-05-12T12:25:50.838Z,2.60
2018-05-12T12:28:57.123Z,2.20
2018-05-12T12:32:03.777Z,2.33
2018-05-12T12:35:09.406Z,3.13
2018-05-12T12:38:14.621Z,2.00
2018-05-12T12:41:20.123Z,2.03
2018-05-12T12:44:26.277Z,2.30
2018-05-12T12:47:33.377Z,2.60
2018-05-12T12:50:39.191Z,2.57
2018-05-12T12:53:44.397Z,2.27
2018-05-12T12:56:50.506Z,2.23
2018-05-12T12:59:56.151Z,2.33
2018-05-12T13:03:03.169Z,2.70
2018-05-12T13:06:10.220Z,2.40
2018-05-12T13:09:16.401Z,2.13
2018-05-12T13:12:22.445Z,1.90
2018-05-12T13:15:29.514Z,2.63
2018-05-12T13:18:36.578Z,2.23
2018-05-12T13:21:43.614Z,2.27
2018-05-12T13:24:50.773Z,2.40
2018-05-12T13:27:56.685Z,2.33
2018-05-12T13:31:02.876Z,2.53
2018-05-12T13:34:08.081Z,3.00
2018-05-12T13:37:14.221Z,2.50
2018-05-12T13:40:19.929Z,2.50
2018-05-12T13:43:25.982Z,2.30
2018-05-12T13:46:31.837Z,2.30
2018-05-12T13:49:37.941Z,2.07
2018-05-12T13:52:43.149Z,2.43
2018-05-12T13:55:48.917Z,2.67
2018-05-12T13:58:56.097Z,2.87
2018-05-12T14:02:02.223Z,2.80
2018-05-12T14:05:08.988Z,2.40
2018-05-12T14:08:14.622Z,2.53
2018-05-12T14:11:19.834Z,2.40
2018-05-12T14:14:25.083Z,2.53
2018-05-12T14:17:32.127Z,2.40
2018-05-12T14:20:39.185Z,2.40
2018-05-12T14:23:46.260Z,2.20
2018-05-12T14:26:52.093Z,2.30
2018-05-12T14:29:58.126Z,2.00
2018-05-12T14:33:04.286Z,2.50
2018-05-12T14:36:09.224Z,3.00
2018-05-12T14:39:16.098Z,2.93
2018-05-12T14:42:23.136Z,2.40
2018-05-12T14:45:29.274Z,2.47
2018-05-12T14:48:35.368Z,2.77
2018-05-12T14:51:41.478Z,2.67
2018-05-12T14:54:47.142Z,2.07
2018-05-12T14:57:52.350Z,3.17
2018-05-12T15:00:57.554Z,2.37
2018-05-12T15:04:03.690Z,2.27
2018-05-12T15:07:09.890Z,2.60
2018-05-12T15:10:15.743Z,1.90
2018-05-12T15:13:20.954Z,2.43
2018-05-12T15:16:26.881Z,2.20
2018-05-12T15:19:32.113Z,2.30
2018-05-12T15:22:38.259Z,2.37
2018-05-12T15:25:43.464Z,2.37
2018-05-12T15:28:48.893Z,3.50
2018-05-12T15:31:55.184Z,4.90
2018-05-12T15:35:01.327Z,5.53
2018-05-12T15:38:07.302Z,5.70
2018-05-12T15:41:13.430Z,5.60
2018-05-12T15:44:20.454Z,6.73
2018-05-12T15:47:26.585Z,7.00
2018-05-12T15:50:32.870Z,6.90
2018-05-12T15:53:39.894Z,6.70
2018-05-12T15:56:46.045Z,6.40
2018-05-12T15:59:53.079Z,7.47
2018-05-12T16:02:59.291Z,6.97
2018-05-12T16:06:04.340Z,6.90
2018-05-12T16:09:10.109Z,6.00
2018-05-12T16:12:16.360Z,6.07
2018-05-12T16:15:22.486Z,6.90
2018-05-12T16:18:28.393Z,6.60
2018-05-12T16:21:34.234Z,6.23
2018-05-12T16:24:39.108Z,6.23
2018-05-12T16:27:45.950Z,6.30
2018-05-12T16:30:52.070Z,6.90
2018-05-12T16:33:56.997Z,6.13
2018-05-12T16:37:02.450Z,6.60
2018-05-12T16:40:09.529Z,6.37
2018-05-12T16:43:15.681Z,6.00
2018-05-12T16:46:21.830Z,6.30
2018-05-12T16:49:28.867Z,5.60
2018-05-12T16:52:35.909Z,4.90
2018-05-12T16:55:42.032Z,5.83
2018-05-12T16:58:48.165Z,5.23
2018-05-12T17:01:54.390Z,5.03
2018-05-12T17:04:59.636Z,4.97
2018-05-12T17:08:05.502Z,4.47
2018-05-12T17:11:12.558Z,5.93
2018-05-12T17:14:18.671Z,4.20
2018-05-12T17:17:23.929Z,5.10
2018-05-12T17:20:30.069Z,5.43
2018-05-12T17:23:35.305Z,4.73
2018-05-12T17:26:42.450Z,4.60
2018-05-12T17:29:48.372Z,4.00
2018-05-12T17:32:54.545Z,4.27
2018-05-12T17:36:00.459Z,5.03
2018-05-12T17:39:06.089Z,4.80
2018-05-12T17:42:13.093Z,4.60
2018-05-12T17:45:20.161Z,4.63
2018-05-12T17:48:26.293Z,4.37
2018-05-12T17:51:32.218Z,4.30
2018-05-12T17:54:38.345Z,4.47
2018-05-12T17:57:44.469Z,4.80
2018-05-12T18:00:50.395Z,3.90
2018-05-12T18:03:57.387Z,4.33
2018-05-12T18:07:03.560Z,4.70
2018-05-12T18:10:09.434Z,4.30
2018-05-12T18:13:15.241Z,4.30
2018-05-12T18:16:20.465Z,4.00
2018-05-12T18:19:26.391Z,4.67
2018-05-12T18:22:32.197Z,4.33
2018-05-12T18:25:37.402Z,4.50
2018-05-12T18:28:43.657Z,4.97
2018-05-12T18:31:49.300Z,3.37
2018-05-12T18:34:54.530Z,3.47
2018-05-12T18:38:01.204Z,4.30
2018-05-12T18:41:06.914Z,3.60
2018-05-12T18:44:11.918Z,3.97
2018-05-12T18:47:17.020Z,4.23
2018-05-12T18:50:22.369Z,4.53
2018-05-12T18:53:28.233Z,4.70
2018-05-12T18:56:34.601Z,4.83
2018-05-12T18:59:40.717Z,4.30
2018-05-12T19:02:46.193Z,4.20
2018-05-12T19:05:51.962Z,4.70
2018-05-12T19:08:57.177Z,4.97
2018-05-12T19:12:02.482Z,4.03
2018-05-12T19:15:07.420Z,4.87
2018-05-12T19:18:12.921Z,4.00
2018-05-12T19:21:18.994Z,4.70
2018-05-12T19:24:24.726Z,4.43
2018-05-12T19:27:29.658Z,4.20
2018-05-12T19:30:36.245Z,4.90
2018-05-12T19:33:42.171Z,4.70
2018-05-12T19:36:48.030Z,4.90
2018-05-12T19:39:53.855Z,4.53
2018-05-12T19:42:59.684Z,5.40
2018-05-12T19:46:05.277Z,4.97
2018-05-12T19:49:11.225Z,4.90
2018-05-12T19:52:16.759Z,5.70
2018-05-12T19:55:22.368Z,5.10
2018-05-12T19:58:27.917Z,5.20
2018-05-12T20:01:34.833Z,4.27
2018-05-12T20:04:40.406Z,5.00
2018-05-12T20:07:45.628Z,5.70
2018-05-12T20:10:52.605Z,5.67
2018-05-12T20:13:58.246Z,5.00
2018-05-12T20:17:02.949Z,5.47
2018-05-12T20:20:07.870Z,5.50
2018-05-12T20:23:13.319Z,5.30
2018-05-12T20:26:19.173Z,4.90
2018-05-12T20:29:25.030Z,5.17
2018-05-12T20:32:31.108Z,5.90
2018-05-12T20:35:36.233Z,5.43
2018-05-12T20:38:42.078Z,5.40
2018-05-12T20:41:47.929Z,6.60
2018-05-12T20:44:53.777Z,6.03
2018-05-12T20:47:59.913Z,6.20
2018-05-12T20:51:05.762Z,6.27
2018-05-12T20:54:10.704Z,6.50
2018-05-12T20:57:16.332Z,6.00
2018-05-12T21:00:22.228Z,5.90
2018-05-12T21:03:27.738Z,6.93
2018-05-12T21:06:32.879Z,6.00
2018-05-12T21:09:37.917Z,5.73
2018-05-12T21:12:43.253Z,5.60
2018-05-12T21:15:49.389Z,6.63
2018-05-12T21:18:54.932Z,6.90
2018-05-12T21:22:00.789Z,6.60
2018-05-12T21:25:06.409Z,6.40
2018-05-12T21:28:11.977Z,5.80
2018-05-12T21:31:16.909Z,6.30
2018-05-12T21:34:23.738Z,6.63
2018-05-12T21:37:30.510Z,5.97
2018-05-12T21:40:36.379Z,5.70
2018-05-12T21:43:41.750Z,6.00
2018-05-12T21:46:48.587Z,6.37
2018-05-12T21:49:54.160Z,6.20
2018-05-12T21:52:59.117Z,5.80
2018-05-12T21:56:05.042Z,6.90
2018-05-12T21:59:11.391Z,6.70
2018-05-12T22:02:16.747Z,6.00
2018-05-12T22:05:21.682Z,6.40
2018-05-12T22:08:27.518Z,6.00
2018-05-12T22:11:32.851Z,6.33
2018-05-12T22:14:38.693Z,7.10
2018-05-12T22:17:43.644Z,6.87
2018-05-12T22:20:48.873Z,7.97
2018-05-12T22:23:54.715Z,7.37
2018-05-12T22:27:00.086Z,7.53
2018-05-12T22:30:05.977Z,8.63
2018-05-12T22:33:11.631Z,8.60
2018-05-12T22:36:16.565Z,9.13
2018-05-12T22:39:21.514Z,9.10
2018-05-12T22:42:27.376Z,9.17
2018-05-12T22:45:32.516Z,9.40
2018-05-12T22:48:37.446Z,9.20
2018-05-12T22:51:42.783Z,9.50
2018-05-12T22:54:47.719Z,9.70
2018-05-12T22:57:52.661Z,10.30
2018-05-12T23:00:58.209Z,10.30
2018-05-12T23:04:04.239Z,10.13
2018-05-12T23:07:09.844Z,9.50
2018-05-12T23:10:15.236Z,10.90
2018-05-12T23:13:20.513Z,9.50
2018-05-12T23:16:26.246Z,11.33
2018-05-12T23:19:31.474Z,9.17
2018-05-12T23:22:36.120Z,9.73
2018-05-12T23:25:42.697Z,8.90
2018-05-12T23:28:48.849Z,9.53
2018-05-12T23:31:54.089Z,10.17
2018-05-12T23:34:59.965Z,10.80
2018-05-12T23:38:05.084Z,9.73
2018-05-12T23:41:10.733Z,9.30
2018-05-12T23:44:16.874Z,11.07
2018-05-12T23:47:22.097Z,9.30
2018-05-12T23:50:27.316Z,9.20
2018-05-12T23:53:32.534Z,9.40
2018-05-12T23:56:39.577Z,10.73
2018-05-12T23:59:45.736Z,10.53
